createdAt,value
2022-10-23T00:00:19.250Z,49.62
2022-10-23T00:02:51.289Z,49.76
2022-10-23T00:05:18.058Z,49.88
2022-10-23T00:07:44.275Z,49.56
2022-10-23T00:10:12.867Z,49.77
2022-10-23T00:12:39.457Z,49.78
2022-10-23T00:15:06.148Z,49.86
2022-10-23T00:17:35.192Z,50.09
2022-10-23T00:20:01.452Z,50.14
2022-10-23T00:22:27.700Z,49.75
2022-10-23T00:24:53.972Z,49.70
2022-10-23T00:27:20.226Z,49.77
2022-10-23T00:29:46.532Z,49.76
2022-10-23T00:32:13.194Z,49.70
2022-10-23T00:34:42.134Z,49.58
2022-10-23T00:37:08.570Z,49.80
2022-10-23T00:39:34.842Z,49.59
2022-10-23T00:42:01.522Z,49.97
2022-10-23T00:44:30.546Z,49.77
2022-10-23T00:46:58.016Z,49.78
2022-10-23T00:49:25.766Z,49.83
2022-10-23T00:51:53.828Z,50.09
2022-10-23T00:54:24.301Z,50.06
2022-10-23T00:56:51.894Z,49.76
2022-10-23T00:59:18.375Z,49.75
2022-10-23T01:01:44.845Z,49.53
2022-10-23T01:04:11.553Z,50.05
2022-10-23T01:06:40.631Z,49.84
2022-10-23T01:09:17.818Z,49.56
2022-10-23T01:11:48.803Z,49.92
2022-10-23T01:14:15.191Z,49.72
2022-10-23T01:16:50.253Z,50.12
2022-10-23T01:19:21.180Z,49.97
2022-10-23T01:21:52.792Z,49.93
2022-10-23T01:24:28.379Z,49.93
2022-10-23T01:27:10.414Z,49.89
2022-10-23T01:29:43.404Z,49.58
2022-10-23T01:32:13.128Z,49.93
2022-10-23T01:34:46.475Z,49.96
2022-10-23T01:37:14.062Z,49.64
2022-10-23T01:39:44.762Z,49.65
2022-10-23T01:42:12.970Z,50.07
2022-10-23T01:44:41.803Z,50.04
2022-10-23T01:47:09.851Z,49.98
2022-10-23T01:49:37.395Z,49.91
2022-10-23T01:52:06.435Z,49.78
2022-10-23T01:54:36.314Z,50.07
2022-10-23T01:57:03.334Z,49.75
2022-10-23T01:59:32.276Z,49.75
2022-10-23T02:02:00.302Z,49.73
2022-10-23T02:04:34.068Z,49.94
2022-10-23T02:07:00.528Z,49.77
2022-10-23T02:09:26.997Z,49.62
2022-10-23T02:12:11.761Z,49.62
2022-10-23T02:14:44.209Z,49.77
2022-10-23T02:17:29.184Z,49.93
2022-10-23T02:19:58.768Z,49.82
2022-10-23T02:22:31.223Z,50.20
2022-10-23T02:25:03.291Z,50.03
2022-10-23T02:27:36.259Z,50.34
2022-10-23T02:30:07.195Z,50.27
2022-10-23T02:32:34.773Z,50.07
2022-10-23T02:35:01.559Z,49.79
2022-10-23T02:37:27.997Z,49.96
2022-10-23T02:39:54.362Z,50.22
2022-10-23T02:42:22.432Z,50.07
2022-10-23T02:44:55.312Z,50.19
2022-10-23T02:47:31.531Z,50.09
2022-10-23T02:50:15.881Z,50.16
2022-10-23T02:52:48.019Z,50.14
2022-10-23T02:55:22.399Z,50.45
2022-10-23T02:58:04.325Z,50.07
2022-10-23T03:00:32.597Z,50.13
2022-10-23T03:03:01.052Z,50.16
2022-10-23T03:05:33.123Z,50.02
2022-10-23T03:07:59.592Z,50.13
2022-10-23T03:10:25.891Z,50.45
2022-10-23T03:12:52.349Z,50.17
2022-10-23T03:15:19.281Z,49.97
2022-10-23T03:17:45.540Z,50.17
2022-10-23T03:20:12.061Z,50.01
2022-10-23T03:22:38.542Z,50.11
2022-10-23T03:25:05.094Z,50.48
2022-10-23T03:27:31.668Z,50.51
2022-10-23T03:29:58.147Z,50.07
2022-10-23T03:32:24.432Z,50.12
2022-10-23T03:34:50.692Z,50.31
2022-10-23T03:37:16.931Z,49.90
2022-10-23T03:39:43.213Z,50.39
2022-10-23T03:42:09.449Z,50.17
2022-10-23T03:44:35.696Z,50.11
2022-10-23T03:47:02.010Z,50.46
2022-10-23T03:49:28.366Z,50.48
2022-10-23T03:51:54.838Z,50.45
2022-10-23T03:54:25.325Z,50.50
2022-10-23T03:56:55.030Z,50.37
2022-10-23T03:59:23.668Z,50.46
2022-10-23T04:01:50.199Z,50.51
2022-10-23T04:04:17.146Z,50.52
2022-10-23T04:06:43.425Z,50.69
2022-10-23T04:09:09.687Z,50.26
2022-10-23T04:11:35.968Z,50.65
2022-10-23T04:14:02.210Z,50.65
2022-10-23T04:16:28.482Z,50.22
2022-10-23T04:18:54.736Z,50.56
2022-10-23T04:21:21.041Z,50.48
2022-10-23T04:23:47.372Z,50.52
2022-10-23T04:26:13.653Z,50.46
2022-10-23T04:28:40.053Z,50.78
2022-10-23T04:31:06.543Z,50.62
2022-10-23T04:33:32.982Z,50.47
2022-10-23T04:35:59.443Z,50.60
2022-10-23T04:38:26.333Z,50.92
2022-10-23T04:40:52.792Z,51.01
2022-10-23T04:43:19.221Z,50.83
2022-10-23T04:45:45.662Z,50.55
2022-10-23T04:48:11.933Z,50.75
2022-10-23T04:50:38.182Z,50.94
2022-10-23T04:53:04.442Z,50.97
2022-10-23T04:55:30.677Z,50.68
2022-10-23T04:57:56.893Z,50.65
2022-10-23T05:00:23.373Z,50.66
2022-10-23T05:02:49.671Z,50.69
2022-10-23T05:05:15.972Z,50.68
2022-10-23T05:07:42.526Z,50.75
2022-10-23T05:10:09.328Z,50.74
2022-10-23T05:12:35.666Z,50.74
2022-10-23T05:15:01.938Z,50.82
2022-10-23T05:17:31.800Z,50.67
2022-10-23T05:19:59.426Z,50.55
2022-10-23T05:22:26.741Z,50.48
2022-10-23T05:24:53.778Z,50.39
2022-10-23T05:27:20.359Z,50.54
2022-10-23T05:29:46.793Z,50.84
2022-10-23T05:32:15.432Z,51.00
2022-10-23T05:34:42.288Z,50.85
2022-10-23T05:37:10.432Z,50.58
2022-10-23T05:39:36.686Z,50.74
2022-10-23T05:42:02.919Z,50.60
2022-10-23T05:44:29.165Z,50.90
2022-10-23T05:46:55.393Z,50.86
2022-10-23T05:49:24.163Z,50.57
2022-10-23T05:51:50.443Z,50.56
2022-10-23T05:54:16.701Z,50.74
2022-10-23T05:56:42.973Z,50.62
2022-10-23T05:59:09.992Z,50.52
2022-10-23T06:01:36.869Z,50.65
2022-10-23T06:04:03.941Z,50.86
2022-10-23T06:06:30.606Z,50.83
2022-10-23T06:08:56.845Z,50.55
2022-10-23T06:11:23.261Z,50.75
2022-10-23T06:13:49.750Z,50.55
2022-10-23T06:16:20.736Z,50.83
2022-10-23T06:18:47.502Z,50.92
2022-10-23T06:21:14.018Z,50.92
2022-10-23T06:23:40.876Z,50.72
2022-10-23T06:26:08.406Z,50.73
2022-10-23T06:28:34.831Z,51.06
2022-10-23T06:31:04.184Z,51.04
2022-10-23T06:33:30.407Z,50.90
2022-10-23T06:35:56.611Z,51.09
2022-10-23T06:38:22.862Z,50.74
2022-10-23T06:40:52.989Z,50.69
2022-10-23T06:43:19.226Z,50.92
2022-10-23T06:45:45.499Z,51.13
2022-10-23T06:48:11.796Z,50.98
2022-10-23T06:50:38.731Z,51.55
2022-10-23T06:53:05.473Z,51.04
2022-10-23T06:55:32.226Z,51.02
2022-10-23T06:57:58.563Z,51.12
2022-10-23T07:00:24.911Z,51.46
2022-10-23T07:02:51.569Z,51.03
2022-10-23T07:05:18.176Z,51.45
2022-10-23T07:07:44.452Z,51.39
2022-10-23T07:10:10.724Z,51.12
2022-10-23T07:12:36.987Z,51.30
2022-10-23T07:15:03.739Z,51.34
2022-10-23T07:17:29.991Z,51.18
2022-10-23T07:19:56.234Z,51.46
2022-10-23T07:22:22.468Z,51.49
2022-10-23T07:24:48.700Z,51.25
2022-10-23T07:27:14.926Z,51.44
2022-10-23T07:29:42.046Z,51.41
2022-10-23T07:32:09.283Z,51.41
2022-10-23T07:34:36.806Z,51.49
2022-10-23T07:37:03.044Z,51.57
2022-10-23T07:39:30.714Z,51.50
2022-10-23T07:41:56.948Z,51.49
2022-10-23T07:44:25.703Z,51.35
2022-10-23T07:46:53.945Z,51.44
2022-10-23T07:49:20.215Z,51.32
2022-10-23T07:51:50.461Z,51.40
2022-10-23T07:54:18.516Z,51.40
2022-10-23T07:56:44.818Z,51.57
2022-10-23T07:59:14.629Z,51.54
2022-10-23T08:01:42.593Z,51.41
2022-10-23T08:04:10.857Z,51.39
2022-10-23T08:06:37.163Z,51.41
2022-10-23T08:09:06.429Z,51.37
2022-10-23T08:11:35.772Z,51.46
2022-10-23T08:14:04.487Z,51.39
2022-10-23T08:16:31.699Z,51.45
2022-10-23T08:18:58.361Z,51.39
2022-10-23T08:21:24.654Z,51.29
2022-10-23T08:23:53.258Z,51.53
2022-10-23T08:26:19.511Z,51.37
2022-10-23T08:28:45.941Z,51.63
2022-10-23T08:31:13.869Z,51.63
2022-10-23T08:33:40.234Z,51.60
2022-10-23T08:36:15.730Z,51.38
2022-10-23T08:38:42.015Z,51.34
2022-10-23T08:41:19.358Z,51.40
2022-10-23T08:43:47.451Z,51.31
2022-10-23T08:46:17.071Z,51.53
2022-10-23T08:48:48.920Z,51.35
2022-10-23T08:51:22.578Z,51.53
2022-10-23T08:53:51.746Z,51.51
2022-10-23T08:56:22.376Z,51.62
2022-10-23T09:01:36.690Z,51.77
2022-10-23T09:04:03.715Z,51.55
2022-10-23T09:06:41.582Z,51.72
2022-10-23T09:09:23.575Z,51.61
2022-10-23T09:11:56.180Z,51.65
2022-10-23T09:14:34.836Z,51.60
2022-10-23T09:17:22.913Z,51.79
2022-10-23T09:19:53.535Z,51.77
2022-10-23T09:22:19.773Z,51.65
2022-10-23T09:24:47.663Z,51.49
2022-10-23T09:27:17.168Z,51.50
2022-10-23T09:29:48.093Z,51.40
2022-10-23T09:32:14.762Z,51.44
2022-10-23T09:34:50.104Z,51.36
2022-10-23T09:37:21.423Z,51.31
2022-10-23T09:39:48.579Z,51.43
2022-10-23T09:42:25.213Z,51.29
2022-10-23T09:44:53.007Z,51.08
2022-10-23T09:47:21.011Z,51.13
2022-10-23T09:49:49.108Z,51.17
2022-10-23T09:52:17.155Z,50.85
2022-10-23T09:54:50.456Z,50.79
2022-10-23T09:57:23.615Z,50.49
2022-10-23T09:59:54.643Z,50.20
2022-10-23T10:02:26.081Z,50.35
2022-10-23T10:04:52.551Z,50.06
2022-10-23T10:07:31.123Z,50.16
2022-10-23T10:09:59.749Z,49.85
2022-10-23T10:12:31.873Z,49.85
2022-10-23T10:15:11.874Z,49.90
2022-10-23T10:17:42.106Z,49.82
2022-10-23T10:20:34.791Z,49.78
2022-10-23T10:23:13.297Z,49.98
2022-10-23T10:25:52.377Z,49.82
2022-10-23T10:28:18.724Z,49.99
2022-10-23T10:31:08.704Z,49.73
2022-10-23T10:33:58.084Z,49.95
2022-10-23T10:39:03.192Z,49.85
2022-10-23T10:41:49.579Z,49.72
2022-10-23T10:44:15.856Z,49.76
2022-10-23T10:46:42.057Z,49.80
2022-10-23T10:49:19.546Z,49.70
2022-10-23T10:51:57.412Z,49.50
2022-10-23T10:54:33.182Z,49.46
2022-10-23T10:57:00.436Z,49.62
2022-10-23T10:59:28.912Z,49.65
2022-10-23T11:02:00.000Z,49.54
2022-10-23T11:04:38.540Z,49.07
2022-10-23T11:07:11.436Z,48.94
2022-10-23T11:09:38.552Z,49.18
2022-10-23T11:12:05.029Z,48.98
2022-10-23T11:14:33.822Z,49.02
2022-10-23T11:17:05.975Z,49.19
2022-10-23T11:19:43.403Z,48.96
2022-10-23T11:22:24.404Z,48.72
2022-10-23T11:25:09.624Z,48.79
2022-10-23T11:27:36.100Z,48.56
2022-10-23T11:30:21.276Z,48.41
2022-10-23T11:33:03.321Z,48.51
2022-10-23T11:35:41.753Z,48.44
2022-10-23T11:38:14.668Z,48.29
2022-10-23T11:40:45.595Z,48.25
2022-10-23T11:43:11.947Z,48.05
2022-10-23T11:45:40.450Z,48.43
2022-10-23T11:48:20.330Z,48.24
2022-10-23T11:50:46.528Z,48.32
2022-10-23T11:53:38.399Z,48.13
2022-10-23T11:56:06.860Z,48.19
2022-10-23T11:58:43.547Z,47.87
2022-10-23T12:01:26.630Z,48.23
2022-10-23T12:03:53.090Z,47.99
2022-10-23T12:06:27.249Z,47.96
2022-10-23T12:08:55.883Z,47.80
2022-10-23T12:11:40.008Z,47.90
2022-10-23T12:14:25.067Z,47.66
2022-10-23T12:16:51.327Z,47.67
2022-10-23T12:19:23.003Z,47.61
2022-10-23T12:21:57.985Z,47.80
2022-10-23T12:24:26.983Z,47.89
2022-10-23T12:27:11.955Z,47.93
2022-10-23T12:29:57.106Z,47.82
2022-10-23T12:32:42.698Z,48.10
2022-10-23T12:35:09.101Z,48.04
2022-10-23T12:37:51.684Z,48.38
2022-10-23T12:40:17.937Z,48.17
2022-10-23T12:42:52.429Z,48.26
2022-10-23T12:45:21.158Z,48.23
2022-10-23T12:47:48.491Z,48.35
2022-10-23T12:50:19.338Z,47.98
2022-10-23T12:53:04.820Z,48.64
2022-10-23T12:55:35.780Z,48.27
2022-10-23T12:58:02.499Z,48.17
2022-10-23T13:00:29.316Z,48.38
2022-10-23T13:03:02.583Z,48.45
2022-10-23T13:05:29.544Z,48.26
2022-10-23T13:07:57.070Z,48.43
2022-10-23T13:10:23.677Z,48.63
2022-10-23T13:12:55.839Z,48.38
2022-10-23T13:15:22.634Z,48.35
2022-10-23T13:17:58.217Z,48.34
2022-10-23T13:20:29.005Z,47.84
2022-10-23T13:23:00.428Z,48.11
2022-10-23T13:25:32.020Z,47.78
2022-10-23T13:28:07.598Z,47.52
2022-10-23T13:30:38.783Z,47.65
2022-10-23T13:33:20.299Z,47.50
2022-10-23T13:35:59.881Z,47.28
2022-10-23T13:38:52.824Z,46.93
2022-10-23T13:41:20.085Z,46.94
2022-10-23T13:43:47.441Z,47.09
2022-10-23T13:46:18.273Z,46.60
2022-10-23T13:48:45.112Z,46.90
2022-10-23T13:51:44.063Z,46.85
2022-10-23T13:54:13.648Z,46.76
2022-10-23T13:56:39.951Z,46.36
2022-10-23T13:59:06.371Z,46.52
2022-10-23T14:01:33.948Z,46.49
2022-10-23T14:04:00.409Z,46.49
2022-10-23T14:06:26.717Z,46.49
2022-10-23T14:08:52.963Z,46.63
2022-10-23T14:11:19.975Z,46.39
2022-10-23T14:13:46.744Z,46.20
2022-10-23T14:16:14.204Z,46.18
2022-10-23T14:18:41.186Z,45.99
2022-10-23T14:21:07.975Z,45.98
2022-10-23T14:23:34.238Z,46.27
2022-10-23T14:26:20.880Z,46.13
2022-10-23T14:28:47.756Z,45.83
2022-10-23T14:31:15.925Z,46.04
2022-10-23T14:33:42.603Z,45.60
2022-10-23T14:36:09.131Z,45.63
2022-10-23T14:38:36.282Z,45.70
2022-10-23T14:41:03.288Z,45.62
2022-10-23T14:43:30.630Z,45.40
2022-10-23T14:45:57.489Z,45.34
2022-10-23T14:48:23.840Z,45.49
2022-10-23T14:50:50.173Z,45.77
2022-10-23T14:53:16.669Z,45.48
2022-10-23T14:55:42.938Z,45.40
2022-10-23T14:58:09.441Z,45.59
2022-10-23T15:00:35.753Z,45.75
2022-10-23T15:03:02.009Z,45.37
2022-10-23T15:05:28.464Z,45.62
2022-10-23T15:07:54.929Z,45.53
2022-10-23T15:10:21.618Z,45.49
2022-10-23T15:12:48.777Z,44.96
2022-10-23T15:15:15.297Z,45.28
2022-10-23T15:17:42.451Z,44.87
2022-10-23T15:20:09.145Z,45.04
2022-10-23T15:22:35.635Z,44.90
2022-10-23T15:25:01.878Z,44.92
2022-10-23T15:27:28.268Z,44.86
2022-10-23T15:29:55.183Z,44.93
2022-10-23T15:32:21.514Z,44.97
2022-10-23T15:34:49.529Z,44.64
2022-10-23T15:37:15.965Z,44.51
2022-10-23T15:39:42.259Z,45.08
2022-10-23T15:42:09.987Z,44.44
2022-10-23T15:44:36.378Z,44.47
2022-10-23T15:47:03.806Z,44.65
2022-10-23T15:49:30.101Z,44.67
2022-10-23T15:51:56.456Z,44.96
2022-10-23T15:54:22.880Z,44.96
2022-10-23T15:56:52.060Z,45.06
2022-10-23T15:59:19.813Z,45.17
2022-10-23T16:01:46.227Z,45.10
2022-10-23T16:04:12.664Z,45.17
2022-10-23T16:06:38.963Z,45.17
2022-10-23T16:09:05.744Z,44.93
2022-10-23T16:11:34.113Z,45.34
2022-10-23T16:14:00.729Z,45.14
2022-10-23T16:16:27.688Z,45.51
2022-10-23T16:18:54.223Z,45.62
2022-10-23T16:21:25.083Z,45.37
2022-10-23T16:23:52.156Z,45.72
2022-10-23T16:26:21.032Z,45.58
2022-10-23T16:28:47.582Z,45.29
2022-10-23T16:31:19.301Z,45.42
2022-10-23T16:33:47.004Z,45.67
2022-10-23T16:36:13.303Z,45.81
2022-10-23T16:38:39.975Z,45.87
2022-10-23T16:41:07.130Z,45.72
2022-10-23T16:43:33.670Z,45.87
2022-10-23T16:46:06.421Z,45.77
2022-10-23T16:48:33.302Z,46.04
2022-10-23T16:50:59.833Z,46.09
2022-10-23T16:53:29.062Z,45.93
2022-10-23T16:55:56.641Z,46.00
2022-10-23T16:58:23.830Z,46.16
2022-10-23T17:00:57.669Z,46.05
2022-10-23T17:03:24.159Z,46.12
2022-10-23T17:05:50.434Z,46.23
2022-10-23T17:08:16.764Z,46.04
2022-10-23T17:10:43.076Z,46.27
2022-10-23T17:13:09.390Z,46.23
2022-10-23T17:15:35.710Z,46.33
2022-10-23T17:18:02.012Z,46.47
2022-10-23T17:20:29.259Z,46.17
2022-10-23T17:22:55.699Z,46.23
2022-10-23T17:25:21.977Z,46.26
2022-10-23T17:27:48.257Z,46.28
2022-10-23T17:30:14.548Z,46.24
2022-10-23T17:32:40.996Z,46.28
2022-10-23T17:35:07.630Z,46.23
2022-10-23T17:37:34.104Z,46.34
2022-10-23T17:40:02.458Z,46.45
2022-10-23T17:42:29.611Z,46.36
2022-10-23T17:44:55.870Z,46.56
2022-10-23T17:47:22.245Z,46.46
2022-10-23T17:49:48.486Z,46.65
2022-10-23T17:52:17.543Z,46.67
2022-10-23T17:54:44.060Z,46.65
2022-10-23T17:57:10.502Z,46.67
2022-10-23T17:59:39.038Z,46.76
2022-10-23T18:02:05.589Z,46.83
2022-10-23T18:04:32.238Z,47.40
2022-10-23T18:06:58.770Z,47.17
2022-10-23T18:09:25.026Z,47.48
2022-10-23T18:11:53.055Z,47.60
2022-10-23T18:14:20.307Z,47.34
2022-10-23T18:16:46.747Z,47.21
2022-10-23T18:19:13.414Z,47.33
2022-10-23T18:21:40.093Z,47.36
2022-10-23T18:24:06.862Z,47.40
2022-10-23T18:26:39.350Z,47.33
2022-10-23T18:29:08.004Z,47.48
2022-10-23T18:31:35.577Z,47.53
2022-10-23T18:34:04.069Z,47.67
2022-10-23T18:36:31.769Z,47.78
2022-10-23T18:38:58.507Z,48.04
2022-10-23T18:41:25.213Z,47.85
2022-10-23T18:43:55.094Z,47.93
2022-10-23T18:46:21.663Z,48.06
2022-10-23T18:48:48.002Z,47.94
2022-10-23T18:51:16.028Z,48.14
2022-10-23T18:53:43.025Z,48.31
2022-10-23T18:56:09.338Z,48.44
2022-10-23T18:58:36.012Z,48.53
2022-10-23T19:01:02.509Z,48.53
2022-10-23T19:03:28.882Z,48.53
2022-10-23T19:05:55.375Z,48.50
2022-10-23T19:08:22.047Z,48.67
2022-10-23T19:13:13.470Z,48.52
2022-10-23T19:15:39.901Z,48.73
2022-10-23T19:18:06.997Z,48.61
2022-10-23T19:20:33.721Z,48.75
2022-10-23T19:23:00.822Z,48.70
2022-10-23T19:25:29.636Z,48.70
2022-10-23T19:27:56.797Z,48.58
2022-10-23T19:30:23.158Z,48.60
2022-10-23T19:32:50.006Z,48.48
2022-10-23T19:35:17.719Z,48.71
2022-10-23T19:37:44.219Z,48.63
2022-10-23T19:40:11.112Z,48.38
2022-10-23T19:42:38.333Z,48.73
2022-10-23T19:45:05.755Z,48.63
2022-10-23T19:47:32.081Z,48.58
2022-10-23T19:49:58.331Z,48.65
2022-10-23T19:52:24.574Z,48.55
2022-10-23T19:54:50.919Z,48.83
2022-10-23T19:57:19.283Z,48.64
2022-10-23T19:59:51.077Z,48.53
2022-10-23T20:02:18.135Z,48.38
2022-10-23T20:04:44.763Z,48.68
2022-10-23T20:07:10.979Z,48.68
2022-10-23T20:09:37.678Z,48.83
2022-10-23T20:12:04.141Z,48.72
2022-10-23T20:14:30.469Z,48.85
2022-10-23T20:16:56.753Z,48.38
2022-10-23T20:19:23.085Z,48.42
2022-10-23T20:21:49.802Z,48.69
2022-10-23T20:24:17.163Z,48.75
2022-10-23T20:26:49.484Z,48.61
2022-10-23T20:29:16.221Z,48.34
2022-10-23T20:31:43.432Z,48.59
2022-10-23T20:34:10.693Z,48.57
2022-10-23T20:36:41.123Z,48.33
2022-10-23T20:39:11.486Z,48.26
2022-10-23T20:41:38.128Z,48.23
2022-10-23T20:44:05.507Z,48.19
2022-10-23T20:46:32.154Z,48.19
2022-10-23T20:48:58.730Z,48.16
2022-10-23T20:51:25.668Z,48.28
2022-10-23T20:53:53.296Z,48.24
2022-10-23T20:56:24.043Z,48.15
2022-10-23T20:58:50.304Z,48.40
2022-10-23T21:01:17.645Z,48.22
2022-10-23T21:03:44.659Z,48.26
2022-10-23T21:06:14.773Z,48.34
2022-10-23T21:08:41.695Z,48.20
2022-10-23T21:11:10.700Z,48.23
2022-10-23T21:13:37.242Z,48.42
2022-10-23T21:16:12.667Z,48.37
2022-10-23T21:18:45.984Z,48.48
2022-10-23T21:21:13.503Z,48.63
2022-10-23T21:23:40.252Z,48.68
2022-10-23T21:26:07.561Z,48.55
2022-10-23T21:28:34.817Z,48.58
2022-10-23T21:31:09.001Z,48.60
2022-10-23T21:33:36.825Z,48.59
2022-10-23T21:36:18.997Z,48.64
2022-10-23T21:38:45.963Z,48.55
2022-10-23T21:41:13.792Z,48.70
2022-10-23T21:43:40.302Z,48.46
2022-10-23T21:46:09.570Z,48.35
2022-10-23T21:48:36.077Z,48.39
2022-10-23T21:51:02.308Z,48.32
2022-10-23T21:53:29.397Z,48.24
2022-10-23T21:55:56.552Z,48.23
2022-10-23T21:58:22.767Z,48.18
2022-10-23T22:00:49.230Z,48.23
2022-10-23T22:03:15.647Z,48.28
2022-10-23T22:05:42.078Z,48.21
2022-10-23T22:08:08.515Z,48.14
2022-10-23T22:10:35.283Z,48.18
2022-10-23T22:13:01.501Z,48.25
2022-10-23T22:15:27.969Z,48.10
2022-10-23T22:17:54.270Z,48.12
2022-10-23T22:20:20.724Z,48.06
2022-10-23T22:22:46.935Z,48.12
2022-10-23T22:25:13.247Z,47.88
2022-10-23T22:27:39.460Z,48.00
2022-10-23T22:30:05.909Z,48.03
2022-10-23T22:32:32.182Z,47.94
2022-10-23T22:34:58.411Z,47.93
2022-10-23T22:37:24.873Z,47.98
2022-10-23T22:39:52.248Z,48.15
2022-10-23T22:42:19.148Z,48.13
2022-10-23T22:44:45.429Z,48.09
2022-10-23T22:47:11.649Z,48.28
2022-10-23T22:49:38.408Z,48.21
2022-10-23T22:52:04.708Z,48.13
2022-10-23T22:54:31.614Z,48.28
2022-10-23T22:56:58.093Z,48.24
2022-10-23T22:59:24.315Z,48.27
2022-10-23T23:01:51.050Z,48.26
2022-10-23T23:07:07.585Z,48.19
2022-10-23T23:09:35.450Z,48.25
2022-10-23T23:12:01.742Z,48.16
2022-10-23T23:14:27.979Z,48.11
2022-10-23T23:16:54.305Z,48.09
2022-10-23T23:19:23.030Z,48.06
2022-10-23T23:21:49.458Z,48.00
2022-10-23T23:24:15.778Z,48.26
2022-10-23T23:26:42.021Z,48.11
2022-10-23T23:29:08.262Z,48.51
2022-10-23T23:31:34.483Z,48.26
2022-10-23T23:34:00.920Z,48.25
2022-10-23T23:36:27.946Z,48.16
2022-10-23T23:38:55.395Z,48.36
2022-10-23T23:41:22.034Z,48.35
2022-10-23T23:43:48.604Z,48.47
2022-10-23T23:46:15.155Z,48.40
2022-10-23T23:48:42.625Z,48.36
2022-10-23T23:51:09.319Z,48.30
2022-10-23T23:53:35.558Z,48.39
2022-10-23T23:56:01.826Z,48.30
2022-10-23T23:58:28.145Z,48.38
